sensor_id;sensor_type;location;lat;lon;timestamp;temperature;humidity
30300;DHT22;17110;52.602;12.998;2023-11-18T00:03:16;4.70;99.90
30300;DHT22;17110;52.602;12.998;2023-11-18T00:08:18;4.70;99.90
30300;DHT22;17110;52.602;12.998;2023-11-18T00:13:19;4.70;99.90
30300;DHT22;17110;52.602;12.998;2023-11-18T00:18:20;4.80;99.90
30300;DHT22;17110;52.602;12.998;2023-11-18T00:23:22;4.80;99.90
30300;DHT22;17110;52.602;12.998;2023-11-18T00:28:22;4.90;99.90
30300;DHT22;17110;52.602;12.998;2023-11-18T00:33:23;4.80;99.90
30300;DHT22;17110;52.602;12.998;2023-11-18T00:38:25;4.90;99.90
30300;DHT22;17110;52.602;12.998;2023-11-18T00:43:26;4.90;99.90
30300;DHT22;17110;52.602;12.998;2023-11-18T00:48:28;5.00;99.90
30300;DHT22;17110;52.602;12.998;2023-11-18T00:53:30;5.00;99.90
30300;DHT22;17110;52.602;12.998;2023-11-18T00:58:31;5.00;99.90
30300;DHT22;17110;52.602;12.998;2023-11-18T01:03:31;5.00;99.90
30300;DHT22;17110;52.602;12.998;2023-11-18T01:08:33;5.00;99.90
30300;DHT22;17110;52.602;12.998;2023-11-18T01:13:34;5.10;99.90
30300;DHT22;17110;52.602;12.998;2023-11-18T01:18:35;5.00;99.90
30300;DHT22;17110;52.602;12.998;2023-11-18T01:23:38;5.00;99.90
30300;DHT22;17110;52.602;12.998;2023-11-18T01:28:39;5.00;99.90
30300;DHT22;17110;52.602;12.998;2023-11-18T01:33:40;5.00;99.90
30300;DHT22;17110;52.602;12.998;2023-11-18T01:38:43;4.90;99.90
30300;DHT22;17110;52.602;12.998;2023-11-18T01:43:45;4.80;99.90
30300;DHT22;17110;52.602;12.998;2023-11-18T01:48:47;4.80;99.90
30300;DHT22;17110;52.602;12.998;2023-11-18T01:53:50;4.80;99.90
30300;DHT22;17110;52.602;12.998;2023-11-18T01:58:51;4.80;99.90
30300;DHT22;17110;52.602;12.998;2023-11-18T02:03:51;4.80;99.90
30300;DHT22;17110;52.602;12.998;2023-11-18T02:08:54;4.80;99.90
30300;DHT22;17110;52.602;12.998;2023-11-18T02:13:59;4.80;99.90
30300;DHT22;17110;52.602;12.998;2023-11-18T02:19:02;4.80;99.90
30300;DHT22;17110;52.602;12.998;2023-11-18T02:24:06;4.70;99.90
30300;DHT22;17110;52.602;12.998;2023-11-18T02:29:08;4.70;99.90
30300;DHT22;17110;52.602;12.998;2023-11-18T02:34:14;4.60;99.90
30300;DHT22;17110;52.602;12.998;2023-11-18T02:39:21;4.60;99.90
30300;DHT22;17110;52.602;12.998;2023-11-18T02:44:24;4.50;99.90
30300;DHT22;17110;52.602;12.998;2023-11-18T02:49:26;4.40;99.90
30300;DHT22;17110;52.602;12.998;2023-11-18T02:54:27;4.30;99.90
30300;DHT22;17110;52.602;12.998;2023-11-18T02:59:29;4.20;99.90
30300;DHT22;17110;52.602;12.998;2023-11-18T03:04:29;4.10;99.90
30300;DHT22;17110;52.602;12.998;2023-11-18T03:09:33;4.00;99.90
30300;DHT22;17110;52.602;12.998;2023-11-18T03:14:35;3.80;99.90
30300;DHT22;17110;52.602;12.998;2023-11-18T03:19:36;3.70;99.90
30300;DHT22;17110;52.602;12.998;2023-11-18T03:24:37;3.70;99.90
30300;DHT22;17110;52.602;12.998;2023-11-18T03:29:40;3.60;99.90
30300;DHT22;17110;52.602;12.998;2023-11-18T03:34:41;3.50;99.90
30300;DHT22;17110;52.602;12.998;2023-11-18T03:39:42;3.50;99.90
30300;DHT22;17110;52.602;12.998;2023-11-18T03:44:44;3.50;99.90
30300;DHT22;17110;52.602;12.998;2023-11-18T03:49:44;3.60;99.90
30300;DHT22;17110;52.602;12.998;2023-11-18T03:54:45;3.70;99.90
30300;DHT22;17110;52.602;12.998;2023-11-18T03:59:47;3.80;99.90
30300;DHT22;17110;52.602;12.998;2023-11-18T04:04:48;3.90;99.90
30300;DHT22;17110;52.602;12.998;2023-11-18T04:09:49;4.00;99.90
30300;DHT22;17110;52.602;12.998;2023-11-18T04:14:51;4.20;99.90
30300;DHT22;17110;52.602;12.998;2023-11-18T04:19:52;4.30;99.90
30300;DHT22;17110;52.602;12.998;2023-11-18T04:24:52;4.40;99.90
30300;DHT22;17110;52.602;12.998;2023-11-18T04:29:55;4.40;99.90
30300;DHT22;17110;52.602;12.998;2023-11-18T04:34:55;4.40;99.90
30300;DHT22;17110;52.602;12.998;2023-11-18T04:39:56;4.40;99.90
30300;DHT22;17110;52.602;12.998;2023-11-18T04:44:58;4.50;99.90
30300;DHT22;17110;52.602;12.998;2023-11-18T04:50:00;4.60;99.90
30300;DHT22;17110;52.602;12.998;2023-11-18T04:55:01;4.60;99.90
30300;DHT22;17110;52.602;12.998;2023-11-18T05:00:03;4.60;99.90
30300;DHT22;17110;52.602;12.998;2023-11-18T05:05:05;4.70;99.90
30300;DHT22;17110;52.602;12.998;2023-11-18T05:10:06;4.70;99.90
30300;DHT22;17110;52.602;12.998;2023-11-18T05:15:09;4.60;99.90
30300;DHT22;17110;52.602;12.998;2023-11-18T05:20:10;4.60;99.90
30300;DHT22;17110;52.602;12.998;2023-11-18T05:25:11;4.60;99.90
30300;DHT22;17110;52.602;12.998;2023-11-18T05:30:13;4.50;99.90
30300;DHT22;17110;52.602;12.998;2023-11-18T05:35:14;4.40;99.90
30300;DHT22;17110;52.602;12.998;2023-11-18T05:40:15;4.30;99.90
30300;DHT22;17110;52.602;12.998;2023-11-18T05:45:17;4.20;99.90
30300;DHT22;17110;52.602;12.998;2023-11-18T05:50:18;4.10;99.90
30300;DHT22;17110;52.602;12.998;2023-11-18T05:55:19;4.10;99.90
30300;DHT22;17110;52.602;12.998;2023-11-18T06:00:21;4.10;99.90
30300;DHT22;17110;52.602;12.998;2023-11-18T06:05:21;4.10;99.90
30300;DHT22;17110;52.602;12.998;2023-11-18T06:10:22;4.20;99.90
30300;DHT22;17110;52.602;12.998;2023-11-18T06:15:24;4.30;99.90
30300;DHT22;17110;52.602;12.998;2023-11-18T06:20:25;4.30;99.90
30300;DHT22;17110;52.602;12.998;2023-11-18T06:25:26;4.40;99.90
30300;DHT22;17110;52.602;12.998;2023-11-18T06:30:28;4.50;99.90
30300;DHT22;17110;52.602;12.998;2023-11-18T06:35:28;4.50;99.90
30300;DHT22;17110;52.602;12.998;2023-11-18T06:40:29;4.60;99.90
30300;DHT22;17110;52.602;12.998;2023-11-18T06:45:31;4.60;99.90
30300;DHT22;17110;52.602;12.998;2023-11-18T06:50:32;4.70;99.90
30300;DHT22;17110;52.602;12.998;2023-11-18T06:55:33;4.70;99.90
30300;DHT22;17110;52.602;12.998;2023-11-18T07:00:36;4.70;99.90
30300;DHT22;17110;52.602;12.998;2023-11-18T07:05:37;4.80;99.90
30300;DHT22;17110;52.602;12.998;2023-11-18T07:10:37;4.80;99.90
30300;DHT22;17110;52.602;12.998;2023-11-18T07:15:40;4.80;99.90
30300;DHT22;17110;52.602;12.998;2023-11-18T07:20:40;4.80;99.90
30300;DHT22;17110;52.602;12.998;2023-11-18T07:25:41;4.90;99.90
30300;DHT22;17110;52.602;12.998;2023-11-18T07:30:43;4.80;99.90
30300;DHT22;17110;52.602;12.998;2023-11-18T07:35:45;4.90;99.90
30300;DHT22;17110;52.602;12.998;2023-11-18T07:40:46;5.00;99.90
30300;DHT22;17110;52.602;12.998;2023-11-18T07:45:48;5.00;99.90
30300;DHT22;17110;52.602;12.998;2023-11-18T07:50:49;5.00;99.90
30300;DHT22;17110;52.602;12.998;2023-11-18T07:55:50;5.00;99.90
30300;DHT22;17110;52.602;12.998;2023-11-18T08:00:52;5.10;99.90
30300;DHT22;17110;52.602;12.998;2023-11-18T08:05:52;5.10;99.90
30300;DHT22;17110;52.602;12.998;2023-11-18T08:10:53;5.20;99.90
30300;DHT22;17110;52.602;12.998;2023-11-18T08:15:55;5.10;99.90
30300;DHT22;17110;52.602;12.998;2023-11-18T08:20:56;5.10;99.90
30300;DHT22;17110;52.602;12.998;2023-11-18T08:25:57;5.20;99.90
30300;DHT22;17110;52.602;12.998;2023-11-18T08:30:59;5.30;99.90
30300;DHT22;17110;52.602;12.998;2023-11-18T08:35:59;5.40;99.90
30300;DHT22;17110;52.602;12.998;2023-11-18T08:41:01;5.40;99.90
30300;DHT22;17110;52.602;12.998;2023-11-18T08:46:03;5.60;99.90
30300;DHT22;17110;52.602;12.998;2023-11-18T08:51:05;5.60;99.90
30300;DHT22;17110;52.602;12.998;2023-11-18T08:56:07;5.60;99.90
30300;DHT22;17110;52.602;12.998;2023-11-18T09:01:09;5.50;99.90
30300;DHT22;17110;52.602;12.998;2023-11-18T09:06:10;5.60;99.90
30300;DHT22;17110;52.602;12.998;2023-11-18T09:11:13;5.70;99.90
30300;DHT22;17110;52.602;12.998;2023-11-18T09:16:15;5.70;99.90
30300;DHT22;17110;52.602;12.998;2023-11-18T09:21:16;5.50;99.90
30300;DHT22;17110;52.602;12.998;2023-11-18T09:26:18;5.60;99.90
30300;DHT22;17110;52.602;12.998;2023-11-18T09:31:21;5.70;99.90
30300;DHT22;17110;52.602;12.998;2023-11-18T09:36:22;5.80;99.90
30300;DHT22;17110;52.602;12.998;2023-11-18T09:41:30;6.00;99.90
30300;DHT22;17110;52.602;12.998;2023-11-18T09:46:35;5.90;99.90
30300;DHT22;17110;52.602;12.998;2023-11-18T09:51:39;6.00;99.90
30300;DHT22;17110;52.602;12.998;2023-11-18T09:56:49;6.30;99.90
30300;DHT22;17110;52.602;12.998;2023-11-18T10:01:54;6.70;99.90
30300;DHT22;17110;52.602;12.998;2023-11-18T10:06:57;7.00;99.90
30300;DHT22;17110;52.602;12.998;2023-11-18T10:11:59;7.00;99.90
30300;DHT22;17110;52.602;12.998;2023-11-18T10:17:05;7.00;99.90
30300;DHT22;17110;52.602;12.998;2023-11-18T10:22:21;7.00;99.90
30300;DHT22;17110;52.602;12.998;2023-11-18T10:27:23;7.00;99.90
30300;DHT22;17110;52.602;12.998;2023-11-18T10:32:26;6.90;99.90
30300;DHT22;17110;52.602;12.998;2023-11-18T10:37:27;6.70;99.90
30300;DHT22;17110;52.602;12.998;2023-11-18T10:42:28;6.80;99.90
30300;DHT22;17110;52.602;12.998;2023-11-18T10:47:32;6.70;99.90
30300;DHT22;17110;52.602;12.998;2023-11-18T10:52:33;6.70;99.90
30300;DHT22;17110;52.602;12.998;2023-11-18T10:57:34;6.60;99.90
30300;DHT22;17110;52.602;12.998;2023-11-18T11:02:37;6.60;99.90
30300;DHT22;17110;52.602;12.998;2023-11-18T11:07:38;6.60;99.90
30300;DHT22;17110;52.602;12.998;2023-11-18T11:12:43;6.60;99.90
30300;DHT22;17110;52.602;12.998;2023-11-18T11:17:52;6.70;99.90
30300;DHT22;17110;52.602;12.998;2023-11-18T11:23:01;6.60;99.90
30300;DHT22;17110;52.602;12.998;2023-11-18T11:28:10;6.40;99.90
30300;DHT22;17110;52.602;12.998;2023-11-18T11:33:22;6.40;99.90
30300;DHT22;17110;52.602;12.998;2023-11-18T11:38:24;6.70;99.90
30300;DHT22;17110;52.602;12.998;2023-11-18T11:43:25;6.50;99.90
30300;DHT22;17110;52.602;12.998;2023-11-18T11:48:28;6.50;99.90
30300;DHT22;17110;52.602;12.998;2023-11-18T11:53:32;6.50;99.90
30300;DHT22;17110;52.602;12.998;2023-11-18T11:58:35;6.70;99.90
30300;DHT22;17110;52.602;12.998;2023-11-18T12:03:40;6.60;99.90
30300;DHT22;17110;52.602;12.998;2023-11-18T12:08:42;6.70;99.90
30300;DHT22;17110;52.602;12.998;2023-11-18T12:14:00;6.80;99.90
30300;DHT22;17110;52.602;12.998;2023-11-18T12:19:32;6.90;99.90
30300;DHT22;17110;52.602;12.998;2023-11-18T12:24:33;6.90;99.90
30300;DHT22;17110;52.602;12.998;2023-11-18T12:29:34;6.80;99.90
30300;DHT22;17110;52.602;12.998;2023-11-18T12:34:52;7.00;99.90
30300;DHT22;17110;52.602;12.998;2023-11-18T12:40:22;7.40;99.90
30300;DHT22;17110;52.602;12.998;2023-11-18T12:45:42;7.20;99.90
30300;DHT22;17110;52.602;12.998;2023-11-18T12:50:44;7.10;99.90
30300;DHT22;17110;52.602;12.998;2023-11-18T12:55:46;7.30;99.90
30300;DHT22;17110;52.602;12.998;2023-11-18T13:00:47;7.30;99.90
30300;DHT22;17110;52.602;12.998;2023-11-18T13:05:50;7.10;99.90
30300;DHT22;17110;52.602;12.998;2023-11-18T13:10:50;6.90;99.90
30300;DHT22;17110;52.602;12.998;2023-11-18T13:15:51;6.80;99.90
30300;DHT22;17110;52.602;12.998;2023-11-18T13:20:57;6.90;99.90
30300;DHT22;17110;52.602;12.998;2023-11-18T13:25:58;6.80;99.90
30300;DHT22;17110;52.602;12.998;2023-11-18T13:30:59;6.80;99.90
30300;DHT22;17110;52.602;12.998;2023-11-18T13:36:01;6.60;99.90
30300;DHT22;17110;52.602;12.998;2023-11-18T13:41:02;6.70;99.90
30300;DHT22;17110;52.602;12.998;2023-11-18T13:46:03;6.70;99.90
30300;DHT22;17110;52.602;12.998;2023-11-18T13:51:06;6.50;99.90
30300;DHT22;17110;52.602;12.998;2023-11-18T13:56:08;6.30;99.90
30300;DHT22;17110;52.602;12.998;2023-11-18T14:01:11;6.10;99.90
30300;DHT22;17110;52.602;12.998;2023-11-18T14:06:13;5.90;99.90
30300;DHT22;17110;52.602;12.998;2023-11-18T14:11:14;5.70;99.90
30300;DHT22;17110;52.602;12.998;2023-11-18T14:16:15;5.60;99.90
30300;DHT22;17110;52.602;12.998;2023-11-18T14:21:17;5.50;99.90
30300;DHT22;17110;52.602;12.998;2023-11-18T14:26:18;5.50;99.90
30300;DHT22;17110;52.602;12.998;2023-11-18T14:31:19;5.50;99.90
30300;DHT22;17110;52.602;12.998;2023-11-18T14:36:21;5.50;99.90
30300;DHT22;17110;52.602;12.998;2023-11-18T14:41:22;5.50;99.90
30300;DHT22;17110;52.602;12.998;2023-11-18T14:46:23;5.40;99.90
30300;DHT22;17110;52.602;12.998;2023-11-18T14:51:25;5.40;99.90
30300;DHT22;17110;52.602;12.998;2023-11-18T14:56:26;5.50;99.90
30300;DHT22;17110;52.602;12.998;2023-11-18T15:01:27;5.40;99.90
30300;DHT22;17110;52.602;12.998;2023-11-18T15:06:29;5.40;99.90
30300;DHT22;17110;52.602;12.998;2023-11-18T15:11:30;5.40;99.90
30300;DHT22;17110;52.602;12.998;2023-11-18T15:16:30;5.40;99.90
30300;DHT22;17110;52.602;12.998;2023-11-18T15:21:32;5.30;99.90
30300;DHT22;17110;52.602;12.998;2023-11-18T15:26:33;5.20;99.90
30300;DHT22;17110;52.602;12.998;2023-11-18T15:31:34;5.20;99.90
30300;DHT22;17110;52.602;12.998;2023-11-18T15:36:40;5.00;99.90
30300;DHT22;17110;52.602;12.998;2023-11-18T15:41:41;4.90;99.90
30300;DHT22;17110;52.602;12.998;2023-11-18T15:46:47;4.80;99.90
30300;DHT22;17110;52.602;12.998;2023-11-18T15:51:49;4.80;99.90
30300;DHT22;17110;52.602;12.998;2023-11-18T15:56:50;4.70;99.90
30300;DHT22;17110;52.602;12.998;2023-11-18T16:01:50;4.60;99.90
30300;DHT22;17110;52.602;12.998;2023-11-18T16:06:53;4.70;99.90
30300;DHT22;17110;52.602;12.998;2023-11-18T16:11:53;4.60;99.90
30300;DHT22;17110;52.602;12.998;2023-11-18T16:16:54;4.50;99.90
30300;DHT22;17110;52.602;12.998;2023-11-18T16:21:56;4.50;99.90
30300;DHT22;17110;52.602;12.998;2023-11-18T16:26:57;4.50;99.90
30300;DHT22;17110;52.602;12.998;2023-11-18T16:31:57;4.60;99.90
30300;DHT22;17110;52.602;12.998;2023-11-18T16:37:00;4.60;99.90
30300;DHT22;17110;52.602;12.998;2023-11-18T16:42:00;4.60;99.90
30300;DHT22;17110;52.602;12.998;2023-11-18T16:47:01;4.60;99.90
30300;DHT22;17110;52.602;12.998;2023-11-18T16:52:04;4.60;99.90
30300;DHT22;17110;52.602;12.998;2023-11-18T16:57:05;4.60;99.90
30300;DHT22;17110;52.602;12.998;2023-11-18T17:02:05;4.60;99.90
30300;DHT22;17110;52.602;12.998;2023-11-18T17:07:08;4.60;99.90
30300;DHT22;17110;52.602;12.998;2023-11-18T17:12:08;4.60;99.90
30300;DHT22;17110;52.602;12.998;2023-11-18T17:17:09;4.60;99.90
30300;DHT22;17110;52.602;12.998;2023-11-18T17:22:11;4.50;99.90
30300;DHT22;17110;52.602;12.998;2023-11-18T17:27:12;4.60;99.90
30300;DHT22;17110;52.602;12.998;2023-11-18T17:32:13;4.60;99.90
30300;DHT22;17110;52.602;12.998;2023-11-18T17:37:15;4.60;99.90
30300;DHT22;17110;52.602;12.998;2023-11-18T17:42:16;4.60;99.90
30300;DHT22;17110;52.602;12.998;2023-11-18T17:47:17;4.60;99.90
30300;DHT22;17110;52.602;12.998;2023-11-18T17:52:19;4.60;99.90
30300;DHT22;17110;52.602;12.998;2023-11-18T17:57:19;4.60;99.90
30300;DHT22;17110;52.602;12.998;2023-11-18T18:02:20;4.60;99.90
30300;DHT22;17110;52.602;12.998;2023-11-18T18:07:22;4.60;99.90
30300;DHT22;17110;52.602;12.998;2023-11-18T18:12:23;4.70;99.90
30300;DHT22;17110;52.602;12.998;2023-11-18T18:17:24;4.70;99.90
30300;DHT22;17110;52.602;12.998;2023-11-18T18:22:26;4.70;99.90
30300;DHT22;17110;52.602;12.998;2023-11-18T18:27:27;4.70;99.90
30300;DHT22;17110;52.602;12.998;2023-11-18T18:32:27;4.60;99.90
30300;DHT22;17110;52.602;12.998;2023-11-18T18:37:29;4.60;99.90
30300;DHT22;17110;52.602;12.998;2023-11-18T18:42:30;4.60;99.90
30300;DHT22;17110;52.602;12.998;2023-11-18T18:47:31;4.60;99.90
30300;DHT22;17110;52.602;12.998;2023-11-18T18:52:33;4.60;99.90
30300;DHT22;17110;52.602;12.998;2023-11-18T18:57:34;4.60;99.90
30300;DHT22;17110;52.602;12.998;2023-11-18T19:02:34;4.70;99.90
30300;DHT22;17110;52.602;12.998;2023-11-18T19:07:36;4.70;99.90
30300;DHT22;17110;52.602;12.998;2023-11-18T19:12:37;4.70;99.90
30300;DHT22;17110;52.602;12.998;2023-11-18T19:17:38;4.70;99.90
30300;DHT22;17110;52.602;12.998;2023-11-18T19:22:41;4.70;99.90
30300;DHT22;17110;52.602;12.998;2023-11-18T19:27:42;4.70;99.90
30300;DHT22;17110;52.602;12.998;2023-11-18T19:32:43;4.80;99.90
30300;DHT22;17110;52.602;12.998;2023-11-18T19:37:45;4.70;99.90
30300;DHT22;17110;52.602;12.998;2023-11-18T19:42:45;4.70;99.90
30300;DHT22;17110;52.602;12.998;2023-11-18T19:47:46;4.70;99.90
30300;DHT22;17110;52.602;12.998;2023-11-18T19:52:48;4.70;99.90
30300;DHT22;17110;52.602;12.998;2023-11-18T19:57:49;4.70;99.90
30300;DHT22;17110;52.602;12.998;2023-11-18T20:02:50;4.80;99.90
30300;DHT22;17110;52.602;12.998;2023-11-18T20:07:52;4.80;99.90
30300;DHT22;17110;52.602;12.998;2023-11-18T20:12:52;4.80;99.90
30300;DHT22;17110;52.602;12.998;2023-11-18T20:17:53;4.80;99.90
30300;DHT22;17110;52.602;12.998;2023-11-18T20:22:55;4.80;99.90
30300;DHT22;17110;52.602;12.998;2023-11-18T20:27:56;4.80;99.90
30300;DHT22;17110;52.602;12.998;2023-11-18T20:32:57;4.80;99.90
30300;DHT22;17110;52.602;12.998;2023-11-18T20:37:59;4.90;99.90
30300;DHT22;17110;52.602;12.998;2023-11-18T20:43:00;4.90;99.90
30300;DHT22;17110;52.602;12.998;2023-11-18T20:48:00;4.90;99.90
30300;DHT22;17110;52.602;12.998;2023-11-18T20:53:03;4.90;99.90
30300;DHT22;17110;52.602;12.998;2023-11-18T20:58:03;4.90;99.90
30300;DHT22;17110;52.602;12.998;2023-11-18T21:03:04;4.90;99.90
30300;DHT22;17110;52.602;12.998;2023-11-18T21:08:06;4.90;99.90
30300;DHT22;17110;52.602;12.998;2023-11-18T21:13:07;4.90;99.90
30300;DHT22;17110;52.602;12.998;2023-11-18T21:18:08;4.90;99.90
30300;DHT22;17110;52.602;12.998;2023-11-18T21:23:10;4.90;99.90
30300;DHT22;17110;52.602;12.998;2023-11-18T21:28:10;4.90;99.90
30300;DHT22;17110;52.602;12.998;2023-11-18T21:33:11;4.90;99.90
30300;DHT22;17110;52.602;12.998;2023-11-18T21:38:13;4.90;99.90
30300;DHT22;17110;52.602;12.998;2023-11-18T21:43:14;4.90;99.90
30300;DHT22;17110;52.602;12.998;2023-11-18T21:48:15;4.90;99.90
30300;DHT22;17110;52.602;12.998;2023-11-18T21:53:17;4.90;99.90
30300;DHT22;17110;52.602;12.998;2023-11-18T21:58:18;5.00;99.90
30300;DHT22;17110;52.602;12.998;2023-11-18T22:03:18;5.00;99.90
30300;DHT22;17110;52.602;12.998;2023-11-18T22:08:20;5.00;99.90
30300;DHT22;17110;52.602;12.998;2023-11-18T22:13:21;5.00;99.90
30300;DHT22;17110;52.602;12.998;2023-11-18T22:18:22;4.90;99.90
30300;DHT22;17110;52.602;12.998;2023-11-18T22:23:24;4.90;99.90
30300;DHT22;17110;52.602;12.998;2023-11-18T22:28:25;4.90;99.90
30300;DHT22;17110;52.602;12.998;2023-11-18T22:33:25;4.90;99.90
30300;DHT22;17110;52.602;12.998;2023-11-18T22:38:28;4.90;99.90
30300;DHT22;17110;52.602;12.998;2023-11-18T22:43:28;4.80;99.90
30300;DHT22;17110;52.602;12.998;2023-11-18T22:48:29;4.70;99.90
30300;DHT22;17110;52.602;12.998;2023-11-18T22:53:31;4.60;99.90
30300;DHT22;17110;52.602;12.998;2023-11-18T22:58:32;4.60;99.90
30300;DHT22;17110;52.602;12.998;2023-11-18T23:03:33;4.60;99.90
30300;DHT22;17110;52.602;12.998;2023-11-18T23:08:35;4.60;99.90
30300;DHT22;17110;52.602;12.998;2023-11-18T23:13:35;4.60;99.90
30300;DHT22;17110;52.602;12.998;2023-11-18T23:18:36;4.60;99.90
30300;DHT22;17110;52.602;12.998;2023-11-18T23:23:38;4.60;99.90
30300;DHT22;17110;52.602;12.998;2023-11-18T23:28:39;4.60;99.90
30300;DHT22;17110;52.602;12.998;2023-11-18T23:33:41;4.60;99.90
30300;DHT22;17110;52.602;12.998;2023-11-18T23:38:43;4.60;99.90
30300;DHT22;17110;52.602;12.998;2023-11-18T23:43:44;4.60;99.90
30300;DHT22;17110;52.602;12.998;2023-11-18T23:48:44;4.60;99.90
30300;DHT22;17110;52.602;12.998;2023-11-18T23:53:47;4.60;99.90
30300;DHT22;17110;52.602;12.998;2023-11-18T23:58:47;4.60;99.90
